Newcomb, Tennessee
Current Conditions -  °F | °C
As of 7:15 AM on Sunday 21 Dec 2014 (Local Time) from K1A6 Reporting Station
Haze Haze  
Wind Chill: 23°   Ceiling: 200
Heat Index: 23°   Visibility: 3mi
Dew Point: 23°   Wind: 0mph
Humidity: 99%   Direction: NA
Pressure: 30.28"   Gusts: NA
Location:  36.55°N, 84.17°W
Report Text: K1A6 211215Z AUTO 00000KT 3SM BR OVC002 M05/M05 A3028 RMK AO2 T10491050
Loading
Personal Weather Stations






























Interactive Weather Map New forecast layout! Learn more

10-Day Weather Forecast

Advertisements
Track Severe Weather on mobile